Time;durP1;ratioP1;P1;durP2;ratioP2;P2;SDS_P1;SDS_P2;PMS_P1;PMS_P2;Temp;Humidity;BMP_temperature;BMP_pressure;BME280_temperature;BME280_humidity;BME280_pressure;Samples;Min_cycle;Max_cycle;Signal;HPM_P1;HPM_P2
2022/06/11 00:01:35;;;;;;;9.80;8.90;;;18.50;99.90;;;18.82;78.62;94396.47;5070486;28;21050;-54
2022/06/11 00:04:17;;;;;;;9.17;8.27;;;18.50;99.90;;;18.82;78.67;94396.47;5070427;28;20454;-54
2022/06/11 00:06:47;;;;;;;9.27;8.47;;;18.60;99.90;;;18.81;79.29;94389.50;5067544;28;20508;-54
2022/06/11 00:09:14;;;;;;;9.57;8.70;;;18.50;99.90;;;18.81;78.75;94392.97;5071518;28;20481;-55
2022/06/11 00:11:41;;;;;;;8.50;7.73;;;18.50;99.90;;;18.82;79.27;94391.13;5066457;28;20494;-54
2022/06/11 00:14:09;;;;;;;9.47;8.67;;;18.50;99.90;;;18.83;79.61;94395.44;5067739;28;20457;-54
2022/06/11 00:16:37;;;;;;;9.63;8.73;;;18.60;99.90;;;18.83;79.24;94387.44;5066749;28;20467;-54
2022/06/11 00:19:06;;;;;;;9.57;8.77;;;18.60;99.90;;;18.84;79.19;94390.94;5065288;28;20458;-55
2022/06/11 00:21:37;;;;;;;9.50;8.70;;;18.60;99.90;;;18.85;79.20;94393.41;5074870;28;20480;-56
2022/06/11 00:24:05;;;;;;;10.87;9.77;;;18.60;99.90;;;18.85;79.83;94396.09;5067321;28;20455;-53
2022/06/11 00:26:33;;;;;;;10.07;9.07;;;18.60;99.90;;;18.85;80.01;94380.09;5072762;28;20473;-53
2022/06/11 00:29:00;;;;;;;9.30;8.40;;;18.60;99.90;;;18.85;79.84;94384.63;5069746;28;20536;-54
2022/06/11 00:31:27;;;;;;;16.43;9.60;;;18.60;99.90;;;18.86;80.13;94386.28;5071217;28;20505;-55
2022/06/11 00:33:56;;;;;;;13.43;9.30;;;18.60;99.90;;;18.85;79.69;94393.41;5066696;28;20458;-53
2022/06/11 00:36:23;;;;;;;9.57;8.73;;;18.60;99.90;;;18.84;78.88;94394.44;5067244;28;20992;-53
2022/06/11 00:38:51;;;;;;;11.37;9.50;;;18.60;99.90;;;18.81;79.42;94392.19;5066221;28;20940;-54
2022/06/11 00:41:18;;;;;;;10.83;9.13;;;18.60;99.90;;;18.79;79.54;94391.53;5070410;28;20489;-55
2022/06/11 00:43:46;;;;;;;9.87;9.00;;;18.50;99.90;;;18.79;79.76;94396.88;5070843;28;20466;-54
2022/06/11 00:46:50;;;;;;;15.40;9.73;;;18.50;99.90;;;18.80;80.08;94401.19;5072186;28;20577;-55
2022/06/11 00:49:29;;;;;;;18.03;10.70;;;18.60;99.90;;;18.81;80.17;94394.84;5068254;28;20458;-53
2022/06/11 00:52:04;;;;;;;10.70;9.70;;;18.50;99.90;;;18.81;80.42;94400.97;5065906;28;20578;-55
2022/06/11 00:54:31;;;;;;;10.67;9.60;;;18.60;99.90;;;18.81;80.28;94400.97;5066820;28;20529;-54
2022/06/11 00:56:58;;;;;;;12.67;10.30;;;18.50;99.90;;;18.81;80.01;94400.97;5065376;28;20477;-54
2022/06/11 00:59:30;;;;;;;10.90;9.80;;;18.50;99.90;;;18.81;80.18;94394.84;5062358;28;20843;-54
2022/06/11 01:01:58;;;;;;;11.57;10.07;;;18.50;99.90;;;18.81;79.68;94400.16;5065516;28;20455;-56
2022/06/11 01:04:38;;;;;;;10.63;9.60;;;18.50;99.90;;;18.79;79.90;94399.53;5067660;28;20442;-54
2022/06/11 01:07:16;;;;;;;10.20;9.30;;;18.50;99.90;;;18.75;79.78;94403.63;5072668;28;20512;-56
2022/06/11 01:09:50;;;;;;;12.73;9.10;;;18.50;99.90;;;18.73;80.24;94405.66;5067038;28;20562;-55
2022/06/11 01:12:21;;;;;;;13.53;9.70;;;18.50;99.90;;;18.71;80.05;94402.38;5070471;28;20478;-54
2022/06/11 01:14:51;;;;;;;11.67;9.73;;;18.50;99.90;;;18.70;80.07;94398.06;5067116;28;21030;-53
2022/06/11 01:17:25;;;;;;;10.80;9.80;;;18.40;99.90;;;18.72;80.84;94396.03;5069070;28;20465;-54
2022/06/11 01:20:23;;;;;;;10.20;9.20;;;18.40;99.90;;;18.72;80.28;94393.38;5067678;28;20923;-55
2022/06/11 01:23:53;;;;;;;12.13;9.97;;;18.40;99.90;;;18.72;80.68;94391.53;5058307;28;20652;-53
2022/06/11 01:26:50;;;;;;;9.67;8.77;;;18.50;99.90;;;18.72;80.21;94396.03;5061938;28;20490;-54
2022/06/11 01:29:43;;;;;;;10.53;9.60;;;18.40;99.90;;;18.70;80.88;94388.25;5068690;28;20454;-54
2022/06/11 01:32:16;;;;;;;10.73;9.57;;;18.40;99.90;;;18.72;80.14;94401.38;5062632;28;21221;-59
2022/06/11 01:34:51;;;;;;;11.30;10.10;;;18.40;99.90;;;18.71;80.40;94399.72;5066619;28;20478;-52
2022/06/11 01:37:23;;;;;;;10.73;9.73;;;18.40;99.90;;;18.71;80.44;94403.19;5066667;28;20456;-53
2022/06/11 01:39:54;;;;;;;10.23;8.80;;;18.40;99.90;;;18.69;80.50;94407.91;5066174;28;20482;-54
2022/06/11 01:42:25;;;;;;;16.43;10.07;;;18.50;99.90;;;18.67;80.96;94404.66;5063267;28;20490;-53
2022/06/11 01:45:07;;;;;;;11.43;10.17;;;18.40;99.90;;;18.66;80.29;94402.19;5065130;28;21081;-56
2022/06/11 01:47:34;;;;;;;12.50;11.30;;;18.40;99.90;;;18.63;80.40;94398.88;5064938;28;20458;-56
2022/06/11 01:50:02;;;;;;;10.83;9.83;;;18.40;99.90;;;18.61;80.38;94411.59;5071144;28;20468;-53
2022/06/11 01:53:01;;;;;;;9.67;8.83;;;18.40;99.90;;;18.60;80.46;94401.94;5068657;28;20501;-53
2022/06/11 01:55:41;;;;;;;10.70;9.70;;;18.30;99.90;;;18.56;80.31;94406.06;5064775;28;21050;-54
2022/06/11 01:58:31;;;;;;;9.90;9.10;;;18.30;99.90;;;18.53;80.57;94411.78;5065006;28;20459;-53
2022/06/11 02:01:06;;;;;;;11.57;9.83;;;18.30;99.90;;;18.52;80.59;94407.47;5066003;28;20479;-55
2022/06/11 02:03:38;;;;;;;13.40;9.67;;;18.30;99.90;;;18.51;80.82;94407.66;5062675;28;21083;-53
2022/06/11 02:06:27;;;;;;;11.97;10.77;;;18.30;99.90;;;18.50;81.31;94412.19;5065638;28;20479;-54
2022/06/11 02:09:11;;;;;;;11.23;10.13;;;18.20;99.90;;;18.50;81.11;94406.00;5064282;28;22813;-54
2022/06/11 02:11:40;;;;;;;10.77;9.77;;;18.20;99.90;;;18.50;80.85;94403.34;5065188;28;20478;-54
2022/06/11 02:14:13;;;;;;;11.23;10.10;;;18.20;99.90;;;18.48;81.22;94403.53;5063735;28;20982;-53
2022/06/11 02:16:45;;;;;;;9.87;8.97;;;18.20;99.90;;;18.47;81.37;94404.59;5070107;28;20548;-52
2022/06/11 02:19:16;;;;;;;11.03;9.97;;;18.20;99.90;;;18.45;80.93;94406.59;5067657;28;20989;-53
2022/06/11 02:21:49;;;;;;;11.27;10.20;;;18.20;99.90;;;18.46;81.23;94405.59;5064942;28;20531;-56
2022/06/11 02:24:19;;;;;;;12.17;11.00;;;18.20;99.90;;;18.47;81.94;94404.59;5061304;28;20461;-55
2022/06/11 02:26:50;;;;;;;11.90;10.63;;;18.20;99.90;;;18.46;81.60;94409.06;5062203;28;20482;-54
2022/06/11 02:29:19;;;;;;;11.93;10.83;;;18.20;99.90;;;18.48;81.54;94406.22;5067575;28;20901;-57
2022/06/11 02:31:51;;;;;;;10.73;9.67;;;18.20;99.90;;;18.50;81.70;94419.31;5068484;28;20494;-55
2022/06/11 02:34:20;;;;;;;12.47;11.27;;;18.20;99.90;;;18.49;81.62;94412.38;5070049;28;20458;-54
2022/06/11 02:36:49;;;;;;;10.83;9.77;;;18.20;99.90;;;18.49;81.75;94410.53;5064749;28;20863;-54
2022/06/11 02:39:17;;;;;;;10.67;9.60;;;18.20;99.90;;;18.49;81.90;94410.53;5065184;28;20462;-56
2022/06/11 02:41:46;;;;;;;11.80;10.67;;;18.20;99.90;;;18.50;81.30;94420.16;5066372;28;20457;-59
2022/06/11 02:44:13;;;;;;;11.30;10.20;;;18.20;99.90;;;18.50;82.10;94412.19;5064386;28;20533;-54
2022/06/11 02:46:44;;;;;;;12.20;11.00;;;18.20;99.90;;;18.48;81.61;94403.53;5063274;28;20470;-54
2022/06/11 02:49:17;;;;;;;12.53;10.93;;;18.30;99.90;;;18.52;81.80;94411.97;5062552;28;20985;-54
2022/06/11 02:51:45;;;;;;;16.93;10.87;;;18.30;99.90;;;18.52;81.63;94402.13;5069933;28;21134;-54
2022/06/11 02:54:12;;;;;;;10.40;9.40;;;18.20;99.90;;;18.53;81.96;94414.44;5070467;28;20462;-53
2022/06/11 02:56:39;;;;;;;12.27;11.07;;;18.30;99.90;;;18.53;82.04;94417.09;5065188;28;20481;-52
2022/06/11 02:59:07;;;;;;;11.80;10.70;;;18.30;99.90;;;18.54;81.53;94421.38;5063586;28;20459;-53
2022/06/11 03:01:34;;;;;;;17.53;11.43;;;18.30;99.90;;;18.54;81.72;94420.56;5067332;28;21004;-54
2022/06/11 03:04:02;;;;;;;12.50;11.20;;;18.30;99.90;;;18.53;82.22;94419.75;5067122;28;20458;-56
2022/06/11 03:06:31;;;;;;;13.57;11.70;;;18.30;99.90;;;18.52;82.26;94427.97;5061085;28;20510;-54
2022/06/11 03:08:59;;;;;;;12.70;11.50;;;18.30;99.90;;;18.50;82.00;94425.50;5061973;28;20459;-53
2022/06/11 03:11:26;;;;;;;12.80;11.60;;;18.20;99.90;;;18.50;82.54;94430.81;5068707;28;20493;-54
2022/06/11 03:13:54;;;;;;;14.80;11.47;;;18.20;99.90;;;18.50;82.41;94427.31;5071185;28;20455;-53
2022/06/11 03:16:21;;;;;;;14.43;12.00;;;18.20;99.90;;;18.49;82.45;94426.50;5071029;28;20479;-54
2022/06/11 03:18:48;;;;;;;12.93;11.63;;;18.20;99.90;;;18.51;81.76;94435.09;5064570;28;20461;-54
2022/06/11 03:21:16;;;;;;;15.60;12.27;;;18.20;99.90;;;18.52;82.41;94430.63;5069475;28;20878;-55
2022/06/11 03:23:45;;;;;;;13.00;11.53;;;18.30;99.90;;;18.54;82.04;94434.72;5064400;28;20838;-54
2022/06/11 03:26:12;;;;;;;13.23;11.80;;;18.30;99.90;;;18.56;81.99;94439.84;5062344;28;20479;-53
2022/06/11 03:28:39;;;;;;;17.03;12.60;;;18.30;99.90;;;18.58;82.11;94446.63;5068047;28;20452;-56
2022/06/11 03:31:07;;;;;;;14.23;12.73;;;18.30;99.90;;;18.60;82.26;94441.91;5065200;28;20498;-54
2022/06/11 03:33:35;;;;;;;12.57;11.27;;;18.30;99.90;;;18.62;81.84;94441.69;5073071;28;20884;-54
2022/06/11 03:36:05;;;;;;;14.27;12.37;;;18.30;99.90;;;18.63;82.21;94436.16;5075072;28;20475;-53
2022/06/11 03:38:32;;;;;;;15.57;13.87;;;18.40;99.90;;;18.67;82.48;94441.09;5071990;28;20458;-54
2022/06/11 03:41:01;;;;;;;14.20;12.80;;;18.40;99.90;;;18.68;82.07;94438.22;5072616;28;20477;-56
2022/06/11 03:43:28;;;;;;;13.63;12.27;;;18.40;99.90;;;18.71;82.62;94440.50;5069198;28;20458;-54
2022/06/11 03:45:56;;;;;;;15.50;13.90;;;18.40;99.90;;;18.72;81.95;94430.69;5070230;28;20478;-57
2022/06/11 03:48:23;;;;;;;15.37;13.30;;;18.50;99.90;;;18.76;82.37;94435.41;5063828;28;20857;-57
2022/06/11 03:50:51;;;;;;;15.17;13.07;;;18.50;99.90;;;18.79;82.09;94435.00;5066446;28;20479;-54
2022/06/11 03:53:18;;;;;;;14.43;12.93;;;18.50;99.90;;;18.81;81.98;94438.28;5065616;28;20462;-53
2022/06/11 03:55:45;;;;;;;16.40;13.00;;;18.50;99.90;;;18.84;82.31;94445.06;5069589;28;20482;-54
2022/06/11 03:58:14;;;;;;;14.57;13.07;;;18.60;99.90;;;18.86;82.28;94443.03;5071715;28;20454;-54
2022/06/11 04:03:27;;;;;;;14.10;12.57;;;18.60;99.90;;;18.94;82.00;94444.69;5070399;28;20437;-54
2022/06/11 04:05:55;;;;;;;15.07;12.10;;;18.70;99.90;;;18.97;81.45;94447.75;5066415;28;20489;-54
2022/06/11 04:08:22;;;;;;;14.10;12.53;;;18.70;99.90;;;19.01;81.95;94447.34;5069749;28;20533;-54
2022/06/11 04:10:50;;;;;;;16.00;13.60;;;18.70;99.90;;;19.04;81.34;94446.97;5068304;28;20572;-54
2022/06/11 04:13:19;;;;;;;15.50;13.47;;;18.70;99.90;;;19.07;81.62;94446.56;5062490;28;20495;-55
2022/06/11 04:15:46;;;;;;;14.53;12.67;;;18.80;99.90;;;19.08;81.19;94443.69;5068675;28;20474;-53
2022/06/11 04:18:23;;;;;;;15.63;13.37;;;18.80;99.90;;;19.09;81.62;94447.19;5073778;28;20460;-54
2022/06/11 04:20:50;;;;;;;12.57;11.27;;;18.80;99.90;;;19.10;81.05;94448.81;5074422;28;20474;-54
2022/06/11 04:23:18;;;;;;;13.57;12.00;;;18.80;99.90;;;19.10;81.10;94451.47;5070711;28;20539;-53
2022/06/11 04:25:45;;;;;;;14.13;11.80;;;18.80;99.90;;;19.10;81.17;94452.31;5066645;28;20592;-54
2022/06/11 04:28:13;;;;;;;14.13;12.47;;;18.80;99.90;;;19.11;81.10;94445.13;5066733;28;20486;-54
2022/06/11 04:30:42;;;;;;;12.97;11.60;;;18.80;99.90;;;19.12;81.17;94442.25;5068473;28;20848;-54
2022/06/11 04:33:09;;;;;;;14.33;12.93;;;18.80;99.90;;;19.12;80.47;94444.94;5067375;28;20499;-54
2022/06/11 04:35:36;;;;;;;11.73;10.47;;;18.90;99.90;;;19.12;80.91;94449.44;5062705;28;20459;-54
2022/06/11 04:38:04;;;;;;;13.10;10.30;;;18.90;99.90;;;19.10;80.65;94451.47;5071852;28;20466;-56
2022/06/11 04:40:31;;;;;;;12.13;10.93;;;18.80;99.90;;;19.10;80.50;94457.66;5063305;28;20885;-55
2022/06/11 04:42:59;;;;;;;10.27;9.23;;;18.80;99.90;;;19.10;80.84;94456.81;5071386;28;20467;-54
2022/06/11 04:45:26;;;;;;;10.33;9.23;;;18.80;99.90;;;19.10;80.37;94456.81;5070066;28;20487;-54
2022/06/11 04:47:55;;;;;;;10.50;9.50;;;18.80;99.90;;;19.06;80.64;94463.59;5067154;28;20455;-55
2022/06/11 04:50:22;;;;;;;11.43;10.20;;;18.80;99.90;;;19.06;80.35;94466.25;5067953;28;20471;-55
2022/06/11 04:52:50;;;;;;;13.67;10.80;;;18.80;99.90;;;19.04;80.84;94471.78;5067781;28;20836;-55
2022/06/11 04:55:17;;;;;;;13.37;10.50;;;18.80;99.90;;;19.03;80.73;94472.00;5063436;28;20492;-56
2022/06/11 04:57:45;;;;;;;13.63;11.70;;;18.80;99.90;;;19.02;80.37;94486.34;5068431;28;20503;-54
2022/06/11 05:00:16;;;;;;;13.63;11.30;;;18.70;99.90;;;18.99;80.61;94490.22;5071218;28;20485;-54
2022/06/11 05:02:44;;;;;;;11.67;10.47;;;18.70;99.90;;;18.97;80.50;94490.41;5069856;28;20458;-54
2022/06/11 05:05:13;;;;;;;12.00;9.77;;;18.70;99.90;;;18.97;80.50;94487.75;5068745;28;20540;-54
2022/06/11 05:07:40;;;;;;;12.33;9.20;;;18.70;99.90;;;18.96;80.95;94493.28;5070555;28;20896;-56
2022/06/11 05:10:09;;;;;;;9.43;8.50;;;18.70;99.90;;;18.95;80.55;94491.66;5065732;28;20480;-53
2022/06/11 05:12:37;;;;;;;7.80;7.10;;;18.70;99.90;;;18.92;80.53;94492.88;5067309;28;20827;-57
2022/06/11 05:15:05;;;;;;;10.23;8.13;;;18.70;99.90;;;18.89;80.79;94487.13;5064731;28;20479;-53
2022/06/11 05:17:32;;;;;;;10.20;9.20;;;18.60;99.90;;;18.86;80.50;94490.19;5064408;28;20878;-55
2022/06/11 05:19:59;;;;;;;10.67;9.53;;;18.60;99.90;;;18.87;80.68;94495.31;5067130;28;20488;-53
2022/06/11 05:22:28;;;;;;;10.50;8.80;;;18.60;99.90;;;18.86;80.77;94499.00;5073067;28;20457;-53
2022/06/11 05:24:56;;;;;;;10.20;8.70;;;18.60;99.90;;;18.88;81.10;94504.94;5068103;28;20477;-52
2022/06/11 05:27:25;;;;;;;9.20;8.30;;;18.60;99.90;;;18.89;80.91;94509.25;5069104;28;20467;-55
2022/06/11 05:29:54;;;;;;;8.70;7.90;;;18.60;99.90;;;18.92;80.99;94508.84;5069714;28;20845;-56
2022/06/11 05:32:22;;;;;;;8.13;7.33;;;18.60;99.90;;;18.95;81.37;94510.31;5061930;28;20494;-52
2022/06/11 05:34:49;;;;;;;13.53;7.87;;;18.70;99.90;;;18.99;80.98;94520.38;5068430;28;20483;-55
2022/06/11 05:37:17;;;;;;;8.53;7.70;;;18.70;99.90;;;19.00;80.97;94510.53;5060156;28;20460;-54
2022/06/11 05:39:46;;;;;;;8.40;7.23;;;18.70;99.90;;;19.04;80.71;94516.25;5063079;28;20725;-53
2022/06/11 05:42:14;;;;;;;8.40;7.53;;;18.80;99.90;;;19.09;81.11;94522.63;5071427;28;21031;-60
2022/06/11 05:44:42;;;;;;;9.03;7.77;;;18.80;99.90;;;19.12;81.21;94519.56;5070897;28;20487;-55
2022/06/11 05:47:10;;;;;;;8.77;7.93;;;18.90;99.90;;;19.19;81.07;94519.59;5071526;28;20515;-54
2022/06/11 05:49:40;;;;;;;11.77;10.63;;;18.90;99.90;;;19.25;81.20;94524.09;5066026;28;20484;-55
2022/06/11 05:52:15;;;;;;;12.63;9.47;;;18.90;99.90;;;19.30;80.86;94519.00;5070528;28;20479;-54
2022/06/11 05:54:42;;;;;;;7.20;6.50;;;19.00;99.90;;;19.38;81.24;94515.31;5065545;28;20558;-54
2022/06/11 05:57:13;;;;;;;8.90;6.87;;;19.10;99.90;;;19.46;81.03;94511.66;5066370;28;20450;-55
2022/06/11 05:59:43;;;;;;;9.00;6.47;;;19.10;99.90;;;19.54;80.11;94516.78;5061558;28;20861;-55
2022/06/11 06:02:12;;;;;;;5.93;5.43;;;19.30;99.90;;;19.61;79.85;94519.44;5059654;28;20454;-56
2022/06/11 06:04:39;;;;;;;7.97;7.20;;;19.30;99.90;;;19.64;80.05;94521.69;5061616;28;20564;-53
2022/06/11 06:07:07;;;;;;;7.13;5.80;;;19.40;99.90;;;19.68;79.45;94518.41;5072859;28;20458;-54
2022/06/11 06:09:34;;;;;;;13.03;6.63;;;19.40;99.90;;;19.71;79.59;94520.66;5063972;28;20470;-55
2022/06/11 06:12:02;;;;;;;8.33;7.37;;;19.40;99.90;;;19.75;79.46;94522.94;5071421;28;20539;-53
2022/06/11 06:14:31;;;;;;;6.77;6.27;;;19.40;99.90;;;19.80;79.92;94525.81;5064144;28;20474;-52
2022/06/11 06:16:58;;;;;;;6.87;6.27;;;19.50;99.90;;;19.82;79.54;94529.94;5060095;28;20455;-54
2022/06/11 06:19:25;;;;;;;6.00;5.20;;;19.50;99.90;;;19.85;79.41;94528.72;5061188;28;20748;-57
2022/06/11 06:21:52;;;;;;;6.03;5.63;;;19.50;99.90;;;19.90;79.32;94530.78;5064651;28;20472;-53
2022/06/11 06:24:20;;;;;;;6.33;5.57;;;19.60;99.90;;;19.90;78.63;94531.59;5064611;28;20467;-57
2022/06/11 06:26:47;;;;;;;7.10;6.50;;;19.60;99.90;;;19.89;78.77;94540.59;5066147;28;20474;-54
2022/06/11 06:29:15;;;;;;;13.73;6.00;;;19.60;99.90;;;19.88;78.91;94545.13;5068284;28;20445;-54
2022/06/11 06:31:44;;;;;;;7.10;6.20;;;19.60;99.90;;;19.90;78.55;94536.09;5066967;28;20536;-56
2022/06/11 06:34:11;;;;;;;5.27;4.87;;;19.60;99.90;;;19.88;78.58;94533.66;5069697;28;20975;-55
2022/06/11 06:36:39;;;;;;;13.40;5.80;;;19.60;99.90;;;19.87;78.34;94537.34;5065432;28;20965;-56
2022/06/11 06:39:06;;;;;;;5.77;5.27;;;19.60;99.90;;;19.87;78.54;94548.00;5065562;28;20971;-54
2022/06/11 06:41:33;;;;;;;5.30;4.70;;;19.60;99.90;;;19.87;78.42;94548.81;5062039;28;20490;-55
2022/06/11 06:44:01;;;;;;;5.03;4.73;;;19.60;99.90;;;19.87;78.68;94553.34;5060662;28;20951;-53
2022/06/11 06:46:28;;;;;;;5.60;4.83;;;19.60;99.90;;;19.87;78.25;94550.69;5065663;28;20474;-56
2022/06/11 06:48:57;;;;;;;6.57;5.30;;;19.60;99.90;;;19.87;78.46;94554.16;5069988;28;20466;-55
2022/06/11 06:51:24;;;;;;;5.47;4.97;;;19.60;99.90;;;19.88;78.20;94547.81;5069132;28;20533;-55
2022/06/11 06:53:51;;;;;;;4.00;3.80;;;19.60;99.90;;;19.94;78.18;94556.84;5074396;28;20998;-55
2022/06/11 06:56:19;;;;;;;6.30;4.93;;;19.70;99.90;;;19.99;78.12;94551.72;5072809;28;20489;-55
2022/06/11 06:58:46;;;;;;;4.57;4.27;;;19.70;99.90;;;20.04;78.06;94551.91;5065684;28;20459;-57
2022/06/11 07:01:13;;;;;;;4.90;4.60;;;19.70;99.90;;;20.12;78.02;94550.06;5069012;28;20479;-57
2022/06/11 07:03:42;;;;;;;5.13;4.70;;;19.80;99.90;;;20.20;77.72;94552.50;5070448;28;20463;-54
2022/06/11 07:06:11;;;;;;;5.00;4.70;;;19.90;99.90;;;20.27;77.63;94553.31;5073161;28;20548;-54
2022/06/11 07:08:39;;;;;;;5.63;5.13;;;19.90;99.90;;;20.33;77.39;94547.16;5083120;28;20461;-56
2022/06/11 07:11:06;;;;;;;5.40;5.00;;;20.00;99.90;;;20.42;77.59;94542.41;5078865;28;20477;-56
2022/06/11 07:13:35;;;;;;;5.97;4.10;;;20.10;99.90;;;20.56;77.33;94548.56;5080574;28;20489;-56
2022/06/11 07:16:02;;;;;;;5.70;5.20;;;20.20;99.90;;;20.68;76.52;94549.56;5072681;28;20473;-56
2022/06/11 07:18:31;;;;;;;5.20;4.80;;;20.40;99.90;;;20.84;76.54;94558.16;5071360;28;20540;-54
2022/06/11 07:21:00;;;;;;;7.67;5.00;;;20.50;99.90;;;21.00;76.48;94557.66;5063908;28;20473;-55
2022/06/11 07:23:33;;;;;;;4.87;4.47;;;20.60;99.90;;;21.21;75.91;94561.06;5071443;28;20443;-53
2022/06/11 07:26:00;;;;;;;3.80;3.50;;;20.80;99.90;;;21.41;75.26;94572.50;5065530;28;21191;-56
2022/06/11 07:28:31;;;;;;;5.07;4.10;;;21.00;99.90;;;21.57;74.78;94575.72;5079495;28;20447;-55
2022/06/11 07:31:01;;;;;;;5.43;4.93;;;21.20;99.90;;;21.72;74.45;94576.25;5080937;28;20465;-53
2022/06/11 07:33:28;;;;;;;5.00;4.60;;;21.30;99.90;;;21.89;73.76;94581.06;5077645;28;20490;-55
2022/06/11 07:35:55;;;;;;;5.07;4.70;;;21.50;99.90;;;22.02;73.35;94580.97;5077559;28;20495;-55
2022/06/11 07:38:23;;;;;;;6.57;5.97;;;21.60;99.90;;;22.12;73.47;94580.47;5075842;28;20584;-56
2022/06/11 07:40:52;;;;;;;4.47;4.10;;;21.70;99.90;;;22.17;72.17;94576.09;5074147;28;20482;-56
2022/06/11 07:43:19;;;;;;;6.30;4.53;;;21.80;99.90;;;22.20;72.21;94578.34;5072284;28;20924;-57
2022/06/11 07:45:47;;;;;;;4.93;4.53;;;21.90;99.90;;;22.26;71.39;94575.81;5070318;28;20494;-55
2022/06/11 07:48:15;;;;;;;5.17;4.60;;;21.90;99.90;;;22.28;71.43;94571.09;5068462;28;20987;-57
2022/06/11 07:50:45;;;;;;;4.80;4.50;;;22.00;99.90;;;22.35;71.04;94585.25;5076514;28;20475;-56
2022/06/11 07:53:13;;;;;;;6.63;5.60;;;22.00;99.90;;;22.40;70.32;94582.72;5077390;28;20483;-56
2022/06/11 07:55:43;;;;;;;5.90;5.40;;;22.10;99.90;;;22.37;70.47;94584.00;5077463;28;20483;-61
2022/06/11 07:58:12;;;;;;;7.83;5.27;;;22.10;99.90;;;22.38;70.02;94588.34;5072923;28;21848;-56
2022/06/11 08:00:42;;;;;;;5.93;5.53;;;22.10;99.90;;;22.32;69.60;94588.38;5074474;28;20535;-55
2022/06/11 08:03:09;;;;;;;11.40;5.60;;;22.00;99.90;;;22.21;69.24;94587.19;5073871;28;20836;-57
2022/06/11 08:05:36;;;;;;;6.97;6.27;;;21.90;99.90;;;22.12;69.74;94583.16;5072025;28;21002;-57
2022/06/11 08:08:07;;;;;;;6.40;5.80;;;21.90;99.90;;;22.08;69.88;94585.47;5071420;28;21068;-55
2022/06/11 08:10:34;;;;;;;7.20;5.83;;;21.80;99.90;;;22.08;68.81;94585.47;5073504;28;20913;-51
2022/06/11 08:13:02;;;;;;;6.80;6.20;;;21.80;99.90;;;22.08;69.42;94581.97;5075137;28;20498;-56
2022/06/11 08:15:31;;;;;;;6.90;6.30;;;21.80;99.90;;;22.11;68.53;94577.00;5067490;28;21030;-55
2022/06/11 08:17:58;;;;;;;8.60;6.50;;;21.80;99.90;;;22.13;68.64;94580.25;5072510;28;20528;-53
2022/06/11 08:20:28;;;;;;;13.27;6.20;;;21.80;99.90;;;22.15;68.05;94583.56;5070720;28;20475;-56
2022/06/11 08:22:56;;;;;;;7.53;6.40;;;21.80;99.90;;;22.13;67.76;94588.28;5072043;28;20462;-55
2022/06/11 08:25:23;;;;;;;7.30;6.53;;;21.80;99.90;;;22.07;67.96;94591.84;5070886;28;20475;-59
2022/06/11 08:27:51;;;;;;;12.10;7.07;;;21.80;99.90;;;22.05;68.70;94591.25;5065351;28;20482;-56
2022/06/11 08:30:20;;;;;;;9.90;7.50;;;21.80;99.90;;;22.10;68.54;94586.06;5066241;28;20493;-54
2022/06/11 08:32:48;;;;;;;11.70;6.00;;;21.80;99.90;;;22.26;68.17;94586.53;5071378;28;20487;-56
2022/06/11 08:35:18;;;;;;;4.90;4.60;;;21.90;99.90;;;22.37;67.17;94584.00;5070401;28;20478;-54
2022/06/11 08:37:45;;;;;;;4.90;4.50;;;22.00;99.90;;;22.41;67.43;94592.41;5074455;28;20452;-55
2022/06/11 08:40:17;;;;;;;4.60;4.30;;;22.10;99.90;;;22.53;67.17;94590.66;5067416;28;20481;-55
2022/06/11 08:42:45;;;;;;;4.70;4.17;;;22.20;99.90;;;22.66;65.92;94580.84;5073623;28;20453;-55
2022/06/11 08:45:16;;;;;;;5.23;4.83;;;22.30;99.90;;;22.78;66.66;94589.78;5069406;28;20486;-54
2022/06/11 08:47:46;;;;;;;11.20;5.17;;;22.40;99.90;;;22.96;67.07;94585.47;5070060;28;20455;-55
2022/06/11 08:50:20;;;;;;;4.93;4.43;;;22.60;99.90;;;23.11;66.38;94583.25;5067704;28;20482;-55
2022/06/11 08:52:47;;;;;;;4.60;4.30;;;22.70;99.90;;;23.25;66.57;94582.06;5066944;28;20469;-54
2022/06/11 08:55:15;;;;;;;4.80;4.40;;;22.90;99.90;;;23.42;65.72;94578.72;5076972;28;20482;-53
2022/06/11 08:57:52;;;;;;;5.93;4.93;;;23.00;99.90;;;23.61;65.60;94580.34;5079774;28;20458;-57
2022/06/11 09:00:20;;;;;;;8.17;4.33;;;23.20;99.80;;;23.78;65.11;94571.59;5075095;28;21013;-57
2022/06/11 09:03:15;;;;;;;4.27;3.97;;;23.40;99.40;;;23.95;63.01;94572.63;5074080;28;20450;-56
2022/06/11 09:06:33;;;;;;;4.00;3.60;;;23.60;98.30;;;24.11;62.21;94575.69;5062906;28;20474;-55
2022/06/11 09:09:06;;;;;;;4.03;3.77;;;23.70;97.80;;;24.23;63.08;94570.31;5065690;28;20455;-57
2022/06/11 09:11:59;;;;;;;3.73;3.53;;;23.80;98.10;;;24.40;61.97;94563.22;5062458;28;20442;-55
2022/06/11 09:14:49;;;;;;;4.10;3.90;;;24.00;97.90;;;24.71;62.48;94563.94;5066664;28;20470;-56
2022/06/11 09:17:48;;;;;;;4.73;4.33;;;24.30;97.80;;;25.08;62.44;94566.31;5076556;28;20442;-56
2022/06/11 09:20:26;;;;;;;4.23;3.83;;;24.50;97.90;;;25.37;61.72;94564.50;5068551;28;20513;-55
2022/06/11 09:23:25;;;;;;;4.70;4.30;;;24.90;97.70;;;25.67;60.82;94566.16;5066791;28;20457;-57
2022/06/11 09:26:04;;;;;;;5.23;4.50;;;25.20;97.10;;;26.04;60.66;94575.69;5069296;28;20477;-53
2022/06/11 09:28:38;;;;;;;4.80;4.43;;;25.50;96.70;;;26.41;59.96;94573.31;5065783;28;20530;-57
2022/06/11 09:31:12;;;;;;;5.97;3.23;;;25.90;96.20;;;26.63;58.70;94569.84;5068638;28;20482;-54
2022/06/11 09:33:43;;;;;;;4.10;3.83;;;26.10;95.20;;;26.69;57.93;94573.47;5061562;28;20564;-55
2022/06/11 09:36:14;;;;;;;5.50;3.80;;;26.30;93.90;;;26.67;57.01;94565.63;5071361;28;20478;-56
2022/06/11 09:38:50;;;;;;;3.83;3.63;;;26.30;93.30;;;26.64;57.05;94566.09;5058050;28;20727;-55
2022/06/11 09:41:26;;;;;;;10.07;3.73;;;26.30;93.40;;;26.64;57.33;94563.41;5060440;28;20482;-56
2022/06/11 09:43:56;;;;;;;3.87;3.30;;;26.20;93.40;;;26.64;57.54;94561.50;5063971;28;20446;-56
2022/06/11 09:46:27;;;;;;;4.20;3.80;;;26.30;93.20;;;26.67;57.29;94567.53;5071990;28;20563;-57
2022/06/11 09:49:12;;;;;;;4.67;3.70;;;26.30;93.00;;;26.66;56.68;94572.09;5072131;28;20447;-55
2022/06/11 09:51:44;;;;;;;7.23;3.93;;;26.30;92.80;;;26.72;57.04;94584.59;5070845;28;20457;-55
2022/06/11 09:54:45;;;;;;;4.00;3.10;;;26.30;92.60;;;26.83;56.17;94583.69;5065948;28;20486;-56
2022/06/11 09:57:21;;;;;;;4.93;3.90;;;26.40;92.50;;;26.93;55.95;94584.88;5071933;28;20457;-55
2022/06/11 09:59:50;;;;;;;6.27;4.97;;;26.50;92.20;;;26.99;56.54;94576.59;5081890;28;20565;-54
2022/06/11 10:02:26;;;;;;;5.10;3.10;;;26.60;92.40;;;27.06;55.97;94575.59;5078458;28;20457;-55
2022/06/11 10:04:53;;;;;;;3.97;3.67;;;26.70;92.00;;;27.15;56.01;94574.09;5076669;28;20521;-57
2022/06/11 10:07:22;;;;;;;3.83;3.60;;;26.70;91.80;;;27.33;53.31;94576.50;5074928;28;20495;-56
2022/06/11 10:09:56;;;;;;;3.47;3.27;;;26.80;89.30;;;27.41;54.48;94569.84;5069016;28;20463;-53
2022/06/11 10:12:32;;;;;;;7.00;4.80;;;26.90;90.60;;;27.41;54.25;94555.53;5069051;28;20445;-55
2022/06/11 10:15:03;;;;;;;19.17;8.93;;;27.00;90.50;;;27.38;54.88;94551.44;5068789;28;20494;-55
2022/06/11 10:17:34;;;;;;;10.50;5.60;;;27.00;90.50;;;27.28;54.43;94567.50;5062570;28;20443;-56
2022/06/11 10:20:04;;;;;;;17.23;8.10;;;26.90;90.10;;;27.08;54.83;94571.59;5081550;28;20471;-58
2022/06/11 10:22:35;;;;;;;4.20;3.73;;;26.70;90.00;;;26.87;54.61;94580.50;5075800;28;20463;-56
2022/06/11 10:25:20;;;;;;;3.87;3.47;;;26.60;90.10;;;26.51;55.26;94588.00;5074602;28;21140;-55
2022/06/11 10:27:49;;;;;;;6.37;2.73;;;26.20;90.40;;;26.07;56.11;94596.75;5076433;28;20453;-55
2022/06/11 10:30:31;;;;;;;8.10;3.50;;;25.90;91.00;;;25.62;57.40;94587.56;5069658;28;20845;-56
2022/06/11 10:32:59;;;;;;;5.00;2.80;;;25.50;91.80;;;25.16;59.12;94587.47;5069575;28;20502;-56
2022/06/11 10:35:31;;;;;;;4.97;3.23;;;25.00;92.90;;;24.75;60.25;94601.94;5070067;28;20550;-54